sensor_id;sensor_type;location;lat;lon;timestamp;P1;durP1;ratioP1;P2;durP2;ratioP2
6523;SDS011;3295;38.928;-77.052;2022-07-29T00:01:46;3.78;;;2.70;;
6523;SDS011;3295;38.928;-77.052;2022-07-29T00:04:13;4.20;;;3.00;;
6523;SDS011;3295;38.928;-77.052;2022-07-29T00:06:42;4.18;;;3.08;;
6523;SDS011;3295;38.928;-77.052;2022-07-29T00:09:09;5.45;;;3.28;;
6523;SDS011;3295;38.928;-77.052;2022-07-29T00:11:36;5.78;;;3.03;;
6523;SDS011;3295;38.928;-77.052;2022-07-29T00:14:03;5.70;;;3.03;;
6523;SDS011;3295;38.928;-77.052;2022-07-29T00:16:30;4.60;;;2.97;;
6523;SDS011;3295;38.928;-77.052;2022-07-29T00:18:57;4.63;;;3.07;;
6523;SDS011;3295;38.928;-77.052;2022-07-29T00:21:24;4.03;;;3.00;;
6523;SDS011;3295;38.928;-77.052;2022-07-29T00:23:53;5.43;;;3.23;;
6523;SDS011;3295;38.928;-77.052;2022-07-29T00:26:20;4.03;;;3.20;;
6523;SDS011;3295;38.928;-77.052;2022-07-29T00:28:47;5.40;;;3.20;;
6523;SDS011;3295;38.928;-77.052;2022-07-29T00:31:14;4.10;;;2.80;;
6523;SDS011;3295;38.928;-77.052;2022-07-29T00:33:41;5.53;;;2.90;;
6523;SDS011;3295;38.928;-77.052;2022-07-29T00:36:08;4.33;;;3.13;;
6523;SDS011;3295;38.928;-77.052;2022-07-29T00:38:34;5.10;;;3.13;;
6523;SDS011;3295;38.928;-77.052;2022-07-29T00:41:03;4.13;;;3.03;;
6523;SDS011;3295;38.928;-77.052;2022-07-29T00:43:30;4.90;;;2.90;;
6523;SDS011;3295;38.928;-77.052;2022-07-29T00:45:57;4.63;;;3.20;;
6523;SDS011;3295;38.928;-77.052;2022-07-29T00:48:24;5.40;;;3.13;;
6523;SDS011;3295;38.928;-77.052;2022-07-29T00:50:51;5.63;;;3.00;;
6523;SDS011;3295;38.928;-77.052;2022-07-29T00:53:19;5.90;;;2.90;;
6523;SDS011;3295;38.928;-77.052;2022-07-29T00:55:46;4.10;;;3.10;;
6523;SDS011;3295;38.928;-77.052;2022-07-29T00:58:15;7.47;;;3.00;;
6523;SDS011;3295;38.928;-77.052;2022-07-29T01:00:42;6.50;;;3.00;;
6523;SDS011;3295;38.928;-77.052;2022-07-29T01:03:09;5.33;;;2.80;;
6523;SDS011;3295;38.928;-77.052;2022-07-29T01:05:36;4.23;;;2.93;;
6523;SDS011;3295;38.928;-77.052;2022-07-29T01:08:04;5.13;;;3.20;;
6523;SDS011;3295;38.928;-77.052;2022-07-29T01:10:31;5.13;;;3.10;;
6523;SDS011;3295;38.928;-77.052;2022-07-29T01:12:59;5.13;;;3.07;;
6523;SDS011;3295;38.928;-77.052;2022-07-29T01:15:28;4.33;;;3.07;;
6523;SDS011;3295;38.928;-77.052;2022-07-29T01:17:58;4.47;;;2.90;;
6523;SDS011;3295;38.928;-77.052;2022-07-29T01:20:30;6.07;;;3.13;;
6523;SDS011;3295;38.928;-77.052;2022-07-29T01:23:01;4.33;;;3.17;;
6523;SDS011;3295;38.928;-77.052;2022-07-29T01:25:49;5.50;;;3.10;;
6523;SDS011;3295;38.928;-77.052;2022-07-29T01:28:33;5.20;;;3.40;;
6523;SDS011;3295;38.928;-77.052;2022-07-29T01:31:00;5.13;;;3.27;;
6523;SDS011;3295;38.928;-77.052;2022-07-29T01:33:29;5.70;;;3.27;;
6523;SDS011;3295;38.928;-77.052;2022-07-29T01:36:17;7.00;;;3.50;;
6523;SDS011;3295;38.928;-77.052;2022-07-29T01:38:47;6.93;;;4.03;;
6523;SDS011;3295;38.928;-77.052;2022-07-29T01:41:17;6.13;;;3.60;;
6523;SDS011;3295;38.928;-77.052;2022-07-29T01:43:49;6.60;;;3.53;;
6523;SDS011;3295;38.928;-77.052;2022-07-29T01:46:18;6.27;;;3.33;;
6523;SDS011;3295;38.928;-77.052;2022-07-29T01:48:47;6.60;;;3.23;;
6523;SDS011;3295;38.928;-77.052;2022-07-29T01:51:15;5.33;;;3.43;;
6523;SDS011;3295;38.928;-77.052;2022-07-29T01:53:44;6.70;;;3.87;;
6523;SDS011;3295;38.928;-77.052;2022-07-29T01:56:12;5.33;;;3.33;;
6523;SDS011;3295;38.928;-77.052;2022-07-29T01:58:41;7.23;;;3.73;;
6523;SDS011;3295;38.928;-77.052;2022-07-29T02:01:10;6.90;;;3.97;;
6523;SDS011;3295;38.928;-77.052;2022-07-29T02:03:38;5.37;;;3.33;;
6523;SDS011;3295;38.928;-77.052;2022-07-29T02:06:05;4.27;;;3.20;;
6523;SDS011;3295;38.928;-77.052;2022-07-29T02:08:34;4.50;;;3.20;;
6523;SDS011;3295;38.928;-77.052;2022-07-29T02:11:02;6.50;;;3.50;;
6523;SDS011;3295;38.928;-77.052;2022-07-29T02:13:30;7.60;;;3.67;;
6523;SDS011;3295;38.928;-77.052;2022-07-29T02:15:58;6.13;;;3.50;;
6523;SDS011;3295;38.928;-77.052;2022-07-29T02:18:27;5.33;;;3.40;;
6523;SDS011;3295;38.928;-77.052;2022-07-29T02:20:57;5.40;;;3.30;;
6523;SDS011;3295;38.928;-77.052;2022-07-29T02:23:25;5.40;;;3.37;;
6523;SDS011;3295;38.928;-77.052;2022-07-29T02:25:53;6.20;;;3.20;;
6523;SDS011;3295;38.928;-77.052;2022-07-29T02:28:21;4.23;;;2.90;;
6523;SDS011;3295;38.928;-77.052;2022-07-29T02:30:48;6.17;;;3.20;;
6523;SDS011;3295;38.928;-77.052;2022-07-29T02:33:16;4.87;;;3.20;;
6523;SDS011;3295;38.928;-77.052;2022-07-29T02:35:46;5.80;;;3.37;;
6523;SDS011;3295;38.928;-77.052;2022-07-29T02:38:15;4.13;;;2.70;;
6523;SDS011;3295;38.928;-77.052;2022-07-29T02:41:01;4.23;;;3.07;;
6523;SDS011;3295;38.928;-77.052;2022-07-29T02:43:30;4.43;;;3.20;;
6523;SDS011;3295;38.928;-77.052;2022-07-29T02:45:58;5.10;;;3.50;;
6523;SDS011;3295;38.928;-77.052;2022-07-29T02:48:27;5.50;;;3.47;;
6523;SDS011;3295;38.928;-77.052;2022-07-29T02:51:01;4.47;;;2.83;;
6523;SDS011;3295;38.928;-77.052;2022-07-29T02:53:28;5.97;;;3.23;;
6523;SDS011;3295;38.928;-77.052;2022-07-29T02:55:56;3.53;;;3.00;;
6523;SDS011;3295;38.928;-77.052;2022-07-29T02:58:24;6.50;;;3.10;;
6523;SDS011;3295;38.928;-77.052;2022-07-29T03:00:54;5.43;;;3.10;;
6523;SDS011;3295;38.928;-77.052;2022-07-29T03:03:22;4.10;;;2.87;;
6523;SDS011;3295;38.928;-77.052;2022-07-29T03:05:52;4.53;;;3.07;;
6523;SDS011;3295;38.928;-77.052;2022-07-29T03:08:21;3.83;;;2.83;;
6523;SDS011;3295;38.928;-77.052;2022-07-29T03:10:49;3.40;;;2.57;;
6523;SDS011;3295;38.928;-77.052;2022-07-29T03:13:18;5.97;;;3.30;;
6523;SDS011;3295;38.928;-77.052;2022-07-29T03:15:46;4.03;;;3.00;;
6523;SDS011;3295;38.928;-77.052;2022-07-29T03:18:14;4.10;;;3.20;;
6523;SDS011;3295;38.928;-77.052;2022-07-29T03:20:41;5.43;;;3.20;;
6523;SDS011;3295;38.928;-77.052;2022-07-29T03:23:08;4.33;;;3.10;;
6523;SDS011;3295;38.928;-77.052;2022-07-29T03:25:37;4.43;;;3.20;;
6523;SDS011;3295;38.928;-77.052;2022-07-29T03:28:04;5.00;;;3.37;;
6523;SDS011;3295;38.928;-77.052;2022-07-29T03:30:31;4.87;;;3.00;;
6523;SDS011;3295;38.928;-77.052;2022-07-29T03:32:58;5.43;;;3.23;;
6523;SDS011;3295;38.928;-77.052;2022-07-29T03:35:26;4.97;;;3.20;;
6523;SDS011;3295;38.928;-77.052;2022-07-29T03:37:53;4.57;;;3.10;;
6523;SDS011;3295;38.928;-77.052;2022-07-29T03:40:22;4.30;;;3.10;;
6523;SDS011;3295;38.928;-77.052;2022-07-29T03:42:51;3.77;;;2.87;;
6523;SDS011;3295;38.928;-77.052;2022-07-29T03:45:19;4.20;;;3.20;;
6523;SDS011;3295;38.928;-77.052;2022-07-29T03:47:47;3.87;;;2.87;;
6523;SDS011;3295;38.928;-77.052;2022-07-29T03:50:16;4.53;;;3.10;;
6523;SDS011;3295;38.928;-77.052;2022-07-29T03:52:44;4.63;;;3.10;;
6523;SDS011;3295;38.928;-77.052;2022-07-29T03:55:12;4.77;;;3.47;;
6523;SDS011;3295;38.928;-77.052;2022-07-29T03:57:39;7.03;;;3.30;;
6523;SDS011;3295;38.928;-77.052;2022-07-29T04:00:09;3.83;;;3.00;;
6523;SDS011;3295;38.928;-77.052;2022-07-29T04:02:36;6.40;;;3.53;;
6523;SDS011;3295;38.928;-77.052;2022-07-29T04:05:05;5.70;;;3.33;;
6523;SDS011;3295;38.928;-77.052;2022-07-29T04:07:38;5.97;;;3.53;;
6523;SDS011;3295;38.928;-77.052;2022-07-29T04:10:05;5.43;;;3.60;;
6523;SDS011;3295;38.928;-77.052;2022-07-29T04:12:33;5.27;;;3.50;;
6523;SDS011;3295;38.928;-77.052;2022-07-29T04:15:02;4.90;;;3.20;;
6523;SDS011;3295;38.928;-77.052;2022-07-29T04:17:31;8.10;;;3.93;;
6523;SDS011;3295;38.928;-77.052;2022-07-29T04:19:58;4.80;;;3.20;;
6523;SDS011;3295;38.928;-77.052;2022-07-29T04:22:25;5.20;;;3.40;;
6523;SDS011;3295;38.928;-77.052;2022-07-29T04:24:53;5.97;;;3.47;;
6523;SDS011;3295;38.928;-77.052;2022-07-29T04:27:20;4.57;;;3.50;;
6523;SDS011;3295;38.928;-77.052;2022-07-29T04:29:47;6.00;;;3.83;;
6523;SDS011;3295;38.928;-77.052;2022-07-29T04:32:14;7.73;;;3.87;;
6523;SDS011;3295;38.928;-77.052;2022-07-29T04:34:42;4.70;;;3.50;;
6523;SDS011;3295;38.928;-77.052;2022-07-29T04:37:11;6.80;;;3.50;;
6523;SDS011;3295;38.928;-77.052;2022-07-29T04:39:38;6.13;;;3.43;;
6523;SDS011;3295;38.928;-77.052;2022-07-29T04:42:06;6.07;;;3.33;;
6523;SDS011;3295;38.928;-77.052;2022-07-29T04:44:33;8.23;;;4.10;;
6523;SDS011;3295;38.928;-77.052;2022-07-29T04:47:01;6.73;;;3.47;;
6523;SDS011;3295;38.928;-77.052;2022-07-29T04:49:28;8.50;;;3.60;;
6523;SDS011;3295;38.928;-77.052;2022-07-29T04:51:56;6.33;;;3.70;;
6523;SDS011;3295;38.928;-77.052;2022-07-29T04:54:23;5.83;;;3.80;;
6523;SDS011;3295;38.928;-77.052;2022-07-29T04:56:51;4.87;;;3.43;;
6523;SDS011;3295;38.928;-77.052;2022-07-29T04:59:19;7.50;;;3.80;;
6523;SDS011;3295;38.928;-77.052;2022-07-29T05:01:47;6.17;;;3.90;;
6523;SDS011;3295;38.928;-77.052;2022-07-29T05:04:14;4.73;;;3.37;;
6523;SDS011;3295;38.928;-77.052;2022-07-29T05:06:41;6.33;;;3.27;;
6523;SDS011;3295;38.928;-77.052;2022-07-29T05:09:10;6.77;;;3.50;;
6523;SDS011;3295;38.928;-77.052;2022-07-29T05:11:37;4.70;;;3.43;;
6523;SDS011;3295;38.928;-77.052;2022-07-29T05:14:04;5.10;;;3.23;;
6523;SDS011;3295;38.928;-77.052;2022-07-29T05:16:31;5.60;;;3.30;;
6523;SDS011;3295;38.928;-77.052;2022-07-29T05:18:58;7.27;;;3.73;;
6523;SDS011;3295;38.928;-77.052;2022-07-29T05:21:26;5.30;;;3.80;;
6523;SDS011;3295;38.928;-77.052;2022-07-29T05:23:53;6.63;;;4.10;;
6523;SDS011;3295;38.928;-77.052;2022-07-29T05:26:21;10.57;;;3.67;;
6523;SDS011;3295;38.928;-77.052;2022-07-29T05:28:48;6.73;;;3.90;;
6523;SDS011;3295;38.928;-77.052;2022-07-29T05:31:15;6.67;;;4.37;;
6523;SDS011;3295;38.928;-77.052;2022-07-29T05:33:43;5.57;;;3.50;;
6523;SDS011;3295;38.928;-77.052;2022-07-29T05:36:10;5.77;;;3.77;;
6523;SDS011;3295;38.928;-77.052;2022-07-29T05:38:37;6.43;;;3.90;;
6523;SDS011;3295;38.928;-77.052;2022-07-29T05:41:04;9.30;;;3.73;;
6523;SDS011;3295;38.928;-77.052;2022-07-29T05:43:33;4.80;;;3.57;;
6523;SDS011;3295;38.928;-77.052;2022-07-29T05:46:00;6.00;;;3.60;;
6523;SDS011;3295;38.928;-77.052;2022-07-29T05:48:27;5.57;;;3.53;;
6523;SDS011;3295;38.928;-77.052;2022-07-29T05:50:54;5.90;;;3.73;;
6523;SDS011;3295;38.928;-77.052;2022-07-29T05:53:21;4.80;;;3.17;;
6523;SDS011;3295;38.928;-77.052;2022-07-29T05:55:49;5.83;;;3.60;;
6523;SDS011;3295;38.928;-77.052;2022-07-29T05:58:16;6.57;;;3.53;;
6523;SDS011;3295;38.928;-77.052;2022-07-29T06:00:45;6.00;;;3.60;;
6523;SDS011;3295;38.928;-77.052;2022-07-29T06:03:13;6.93;;;4.03;;
6523;SDS011;3295;38.928;-77.052;2022-07-29T06:05:40;7.83;;;3.70;;
6523;SDS011;3295;38.928;-77.052;2022-07-29T06:08:07;12.53;;;3.70;;
6523;SDS011;3295;38.928;-77.052;2022-07-29T06:10:34;8.33;;;3.87;;
6523;SDS011;3295;38.928;-77.052;2022-07-29T06:13:02;6.73;;;3.70;;
6523;SDS011;3295;38.928;-77.052;2022-07-29T06:15:29;5.80;;;3.70;;
6523;SDS011;3295;38.928;-77.052;2022-07-29T06:17:57;7.20;;;3.80;;
6523;SDS011;3295;38.928;-77.052;2022-07-29T06:20:25;6.73;;;3.57;;
6523;SDS011;3295;38.928;-77.052;2022-07-29T06:22:54;5.87;;;3.80;;
6523;SDS011;3295;38.928;-77.052;2022-07-29T06:25:22;7.80;;;3.67;;
6523;SDS011;3295;38.928;-77.052;2022-07-29T06:27:50;5.33;;;3.47;;
6523;SDS011;3295;38.928;-77.052;2022-07-29T06:30:17;8.50;;;3.83;;
6523;SDS011;3295;38.928;-77.052;2022-07-29T06:32:44;5.60;;;3.43;;
6523;SDS011;3295;38.928;-77.052;2022-07-29T06:35:13;10.50;;;3.70;;
6523;SDS011;3295;38.928;-77.052;2022-07-29T06:37:40;6.93;;;3.80;;
6523;SDS011;3295;38.928;-77.052;2022-07-29T06:40:08;5.30;;;3.53;;
6523;SDS011;3295;38.928;-77.052;2022-07-29T06:42:52;6.33;;;3.50;;
6523;SDS011;3295;38.928;-77.052;2022-07-29T06:45:19;4.57;;;3.30;;
6523;SDS011;3295;38.928;-77.052;2022-07-29T06:47:46;5.30;;;3.70;;
6523;SDS011;3295;38.928;-77.052;2022-07-29T06:50:15;5.40;;;3.73;;
6523;SDS011;3295;38.928;-77.052;2022-07-29T06:52:42;7.30;;;4.03;;
6523;SDS011;3295;38.928;-77.052;2022-07-29T06:55:11;6.07;;;3.50;;
6523;SDS011;3295;38.928;-77.052;2022-07-29T06:57:38;13.07;;;4.40;;
6523;SDS011;3295;38.928;-77.052;2022-07-29T07:00:06;6.97;;;3.60;;
6523;SDS011;3295;38.928;-77.052;2022-07-29T07:02:34;5.37;;;3.70;;
6523;SDS011;3295;38.928;-77.052;2022-07-29T07:05:01;8.07;;;3.67;;
6523;SDS011;3295;38.928;-77.052;2022-07-29T07:07:29;7.87;;;3.60;;
6523;SDS011;3295;38.928;-77.052;2022-07-29T07:09:56;6.67;;;3.70;;
6523;SDS011;3295;38.928;-77.052;2022-07-29T07:12:23;4.10;;;3.10;;
6523;SDS011;3295;38.928;-77.052;2022-07-29T07:14:50;8.67;;;3.73;;
6523;SDS011;3295;38.928;-77.052;2022-07-29T07:17:18;5.97;;;3.50;;
6523;SDS011;3295;38.928;-77.052;2022-07-29T07:19:45;6.70;;;3.47;;
6523;SDS011;3295;38.928;-77.052;2022-07-29T07:22:12;7.47;;;3.67;;
6523;SDS011;3295;38.928;-77.052;2022-07-29T07:24:41;6.57;;;3.67;;
6523;SDS011;3295;38.928;-77.052;2022-07-29T07:27:08;5.20;;;3.50;;
6523;SDS011;3295;38.928;-77.052;2022-07-29T07:29:35;6.50;;;3.33;;
6523;SDS011;3295;38.928;-77.052;2022-07-29T07:32:02;6.93;;;3.60;;
6523;SDS011;3295;38.928;-77.052;2022-07-29T07:34:29;7.07;;;4.00;;
6523;SDS011;3295;38.928;-77.052;2022-07-29T07:36:56;6.63;;;3.73;;
6523;SDS011;3295;38.928;-77.052;2022-07-29T07:39:23;6.40;;;3.90;;
6523;SDS011;3295;38.928;-77.052;2022-07-29T07:41:52;7.33;;;4.20;;
6523;SDS011;3295;38.928;-77.052;2022-07-29T07:44:20;8.77;;;3.90;;
6523;SDS011;3295;38.928;-77.052;2022-07-29T07:46:47;6.83;;;3.67;;
6523;SDS011;3295;38.928;-77.052;2022-07-29T07:49:14;9.90;;;3.70;;
6523;SDS011;3295;38.928;-77.052;2022-07-29T07:51:42;6.43;;;3.33;;
6523;SDS011;3295;38.928;-77.052;2022-07-29T07:54:09;7.30;;;3.50;;
6523;SDS011;3295;38.928;-77.052;2022-07-29T07:56:36;4.17;;;3.30;;
6523;SDS011;3295;38.928;-77.052;2022-07-29T07:59:05;5.47;;;3.33;;
6523;SDS011;3295;38.928;-77.052;2022-07-29T08:01:32;6.43;;;3.53;;
6523;SDS011;3295;38.928;-77.052;2022-07-29T08:03:59;7.63;;;4.10;;
6523;SDS011;3295;38.928;-77.052;2022-07-29T08:06:26;8.40;;;4.20;;
6523;SDS011;3295;38.928;-77.052;2022-07-29T08:08:53;5.93;;;3.80;;
6523;SDS011;3295;38.928;-77.052;2022-07-29T08:11:21;9.77;;;3.70;;
6523;SDS011;3295;38.928;-77.052;2022-07-29T08:13:48;5.20;;;3.97;;
6523;SDS011;3295;38.928;-77.052;2022-07-29T08:16:16;6.77;;;3.57;;
6523;SDS011;3295;38.928;-77.052;2022-07-29T08:18:44;6.57;;;4.07;;
6523;SDS011;3295;38.928;-77.052;2022-07-29T08:21:12;9.10;;;3.90;;
6523;SDS011;3295;38.928;-77.052;2022-07-29T08:23:40;8.63;;;3.43;;
6523;SDS011;3295;38.928;-77.052;2022-07-29T08:26:11;7.30;;;3.63;;
6523;SDS011;3295;38.928;-77.052;2022-07-29T08:28:38;4.50;;;3.30;;
6523;SDS011;3295;38.928;-77.052;2022-07-29T08:31:05;5.10;;;3.90;;
6523;SDS011;3295;38.928;-77.052;2022-07-29T08:33:34;8.47;;;3.93;;
6523;SDS011;3295;38.928;-77.052;2022-07-29T08:36:01;6.57;;;3.90;;
6523;SDS011;3295;38.928;-77.052;2022-07-29T08:38:29;5.10;;;3.43;;
6523;SDS011;3295;38.928;-77.052;2022-07-29T08:40:56;6.03;;;4.03;;
6523;SDS011;3295;38.928;-77.052;2022-07-29T08:43:24;5.03;;;3.90;;
6523;SDS011;3295;38.928;-77.052;2022-07-29T08:45:51;5.37;;;4.10;;
6523;SDS011;3295;38.928;-77.052;2022-07-29T08:48:19;6.87;;;3.73;;
6523;SDS011;3295;38.928;-77.052;2022-07-29T08:50:48;7.13;;;4.30;;
6523;SDS011;3295;38.928;-77.052;2022-07-29T08:53:16;7.00;;;3.97;;
6523;SDS011;3295;38.928;-77.052;2022-07-29T08:55:43;5.77;;;3.53;;
6523;SDS011;3295;38.928;-77.052;2022-07-29T08:58:11;6.53;;;3.77;;
6523;SDS011;3295;38.928;-77.052;2022-07-29T09:00:40;6.07;;;4.07;;
6523;SDS011;3295;38.928;-77.052;2022-07-29T09:03:08;5.43;;;3.93;;
6523;SDS011;3295;38.928;-77.052;2022-07-29T09:05:35;7.03;;;3.90;;
6523;SDS011;3295;38.928;-77.052;2022-07-29T09:08:04;5.60;;;3.60;;
6523;SDS011;3295;38.928;-77.052;2022-07-29T09:10:32;7.80;;;3.90;;
6523;SDS011;3295;38.928;-77.052;2022-07-29T09:12:59;9.13;;;4.00;;
6523;SDS011;3295;38.928;-77.052;2022-07-29T09:15:27;5.60;;;3.70;;
6523;SDS011;3295;38.928;-77.052;2022-07-29T09:17:54;6.37;;;3.80;;
6523;SDS011;3295;38.928;-77.052;2022-07-29T09:20:23;5.33;;;3.63;;
6523;SDS011;3295;38.928;-77.052;2022-07-29T09:22:51;4.80;;;3.63;;
6523;SDS011;3295;38.928;-77.052;2022-07-29T09:25:33;5.33;;;3.83;;
6523;SDS011;3295;38.928;-77.052;2022-07-29T09:28:06;7.27;;;3.60;;
6523;SDS011;3295;38.928;-77.052;2022-07-29T09:30:34;5.63;;;4.20;;
6523;SDS011;3295;38.928;-77.052;2022-07-29T09:33:02;4.90;;;3.50;;
6523;SDS011;3295;38.928;-77.052;2022-07-29T09:35:29;6.23;;;3.90;;
6523;SDS011;3295;38.928;-77.052;2022-07-29T09:37:57;5.53;;;4.00;;
6523;SDS011;3295;38.928;-77.052;2022-07-29T09:40:25;5.53;;;3.67;;
6523;SDS011;3295;38.928;-77.052;2022-07-29T09:42:54;7.57;;;3.97;;
6523;SDS011;3295;38.928;-77.052;2022-07-29T09:45:26;8.83;;;4.60;;
6523;SDS011;3295;38.928;-77.052;2022-07-29T09:47:53;6.00;;;3.83;;
6523;SDS011;3295;38.928;-77.052;2022-07-29T09:50:22;5.60;;;3.77;;
6523;SDS011;3295;38.928;-77.052;2022-07-29T09:53:01;7.20;;;4.00;;
6523;SDS011;3295;38.928;-77.052;2022-07-29T09:55:28;9.23;;;4.00;;
6523;SDS011;3295;38.928;-77.052;2022-07-29T09:57:56;9.00;;;3.87;;
6523;SDS011;3295;38.928;-77.052;2022-07-29T10:00:41;5.13;;;3.70;;
6523;SDS011;3295;38.928;-77.052;2022-07-29T10:03:09;5.80;;;3.97;;
6523;SDS011;3295;38.928;-77.052;2022-07-29T10:05:37;5.17;;;3.77;;
6523;SDS011;3295;38.928;-77.052;2022-07-29T10:08:05;8.00;;;4.47;;
6523;SDS011;3295;38.928;-77.052;2022-07-29T10:10:33;6.90;;;4.10;;
6523;SDS011;3295;38.928;-77.052;2022-07-29T10:13:03;9.90;;;4.10;;
6523;SDS011;3295;38.928;-77.052;2022-07-29T10:15:31;6.27;;;3.53;;
6523;SDS011;3295;38.928;-77.052;2022-07-29T10:17:58;6.80;;;3.40;;
6523;SDS011;3295;38.928;-77.052;2022-07-29T10:20:26;8.30;;;3.80;;
6523;SDS011;3295;38.928;-77.052;2022-07-29T10:22:53;6.93;;;3.73;;
6523;SDS011;3295;38.928;-77.052;2022-07-29T10:25:21;6.67;;;4.00;;
6523;SDS011;3295;38.928;-77.052;2022-07-29T10:27:48;6.90;;;3.83;;
6523;SDS011;3295;38.928;-77.052;2022-07-29T10:30:18;7.07;;;3.83;;
6523;SDS011;3295;38.928;-77.052;2022-07-29T10:32:54;6.13;;;3.73;;
6523;SDS011;3295;38.928;-77.052;2022-07-29T10:41:02;8.50;;;3.70;;
6523;SDS011;3295;38.928;-77.052;2022-07-29T10:43:47;4.87;;;3.40;;
6523;SDS011;3295;38.928;-77.052;2022-07-29T10:46:16;7.13;;;3.80;;
6523;SDS011;3295;38.928;-77.052;2022-07-29T10:51:41;6.37;;;3.80;;
6523;SDS011;3295;38.928;-77.052;2022-07-29T10:54:17;9.63;;;3.90;;
6523;SDS011;3295;38.928;-77.052;2022-07-29T10:56:44;7.27;;;3.90;;
6523;SDS011;3295;38.928;-77.052;2022-07-29T10:59:24;6.17;;;4.03;;
6523;SDS011;3295;38.928;-77.052;2022-07-29T11:01:53;6.50;;;3.73;;
6523;SDS011;3295;38.928;-77.052;2022-07-29T11:07:10;6.47;;;3.83;;
6523;SDS011;3295;38.928;-77.052;2022-07-29T11:09:38;11.67;;;4.70;;
6523;SDS011;3295;38.928;-77.052;2022-07-29T11:12:07;6.00;;;3.97;;
6523;SDS011;3295;38.928;-77.052;2022-07-29T11:14:58;7.30;;;4.10;;
6523;SDS011;3295;38.928;-77.052;2022-07-29T11:17:29;6.93;;;4.00;;
6523;SDS011;3295;38.928;-77.052;2022-07-29T11:22:38;7.20;;;4.40;;
6523;SDS011;3295;38.928;-77.052;2022-07-29T11:25:14;8.30;;;4.33;;
6523;SDS011;3295;38.928;-77.052;2022-07-29T11:27:42;13.50;;;6.90;;
6523;SDS011;3295;38.928;-77.052;2022-07-29T11:30:11;10.83;;;5.53;;
6523;SDS011;3295;38.928;-77.052;2022-07-29T11:32:40;11.90;;;6.80;;
6523;SDS011;3295;38.928;-77.052;2022-07-29T11:35:12;14.90;;;6.97;;
6523;SDS011;3295;38.928;-77.052;2022-07-29T11:37:39;15.87;;;6.50;;
6523;SDS011;3295;38.928;-77.052;2022-07-29T11:40:13;10.20;;;5.83;;
6523;SDS011;3295;38.928;-77.052;2022-07-29T11:42:41;8.43;;;5.03;;
6523;SDS011;3295;38.928;-77.052;2022-07-29T11:45:10;11.43;;;5.40;;
6523;SDS011;3295;38.928;-77.052;2022-07-29T11:47:40;7.10;;;4.63;;
6523;SDS011;3295;38.928;-77.052;2022-07-29T11:50:09;7.50;;;4.43;;
6523;SDS011;3295;38.928;-77.052;2022-07-29T11:52:36;7.97;;;4.60;;
6523;SDS011;3295;38.928;-77.052;2022-07-29T11:55:08;10.60;;;4.37;;
6523;SDS011;3295;38.928;-77.052;2022-07-29T11:57:36;8.37;;;4.10;;
6523;SDS011;3295;38.928;-77.052;2022-07-29T12:00:04;5.57;;;3.93;;
6523;SDS011;3295;38.928;-77.052;2022-07-29T12:02:40;7.57;;;4.33;;
6523;SDS011;3295;38.928;-77.052;2022-07-29T12:05:08;5.97;;;4.30;;
6523;SDS011;3295;38.928;-77.052;2022-07-29T12:07:36;9.07;;;4.93;;
6523;SDS011;3295;38.928;-77.052;2022-07-29T12:10:04;7.87;;;4.73;;
6523;SDS011;3295;38.928;-77.052;2022-07-29T12:12:31;8.27;;;4.57;;
6523;SDS011;3295;38.928;-77.052;2022-07-29T12:15:10;10.17;;;5.07;;
6523;SDS011;3295;38.928;-77.052;2022-07-29T12:17:37;9.83;;;4.73;;
6523;SDS011;3295;38.928;-77.052;2022-07-29T12:20:06;7.57;;;4.20;;
6523;SDS011;3295;38.928;-77.052;2022-07-29T12:22:34;10.07;;;4.57;;
6523;SDS011;3295;38.928;-77.052;2022-07-29T12:25:05;9.43;;;4.60;;
6523;SDS011;3295;38.928;-77.052;2022-07-29T12:27:33;6.90;;;4.50;;
6523;SDS011;3295;38.928;-77.052;2022-07-29T12:30:02;10.03;;;4.70;;
6523;SDS011;3295;38.928;-77.052;2022-07-29T12:32:33;7.03;;;4.70;;
6523;SDS011;3295;38.928;-77.052;2022-07-29T12:35:02;8.13;;;4.90;;
6523;SDS011;3295;38.928;-77.052;2022-07-29T12:37:32;6.87;;;4.70;;
6523;SDS011;3295;38.928;-77.052;2022-07-29T12:39:59;6.33;;;4.27;;
6523;SDS011;3295;38.928;-77.052;2022-07-29T12:42:26;8.47;;;5.20;;
6523;SDS011;3295;38.928;-77.052;2022-07-29T12:44:54;8.77;;;5.20;;
6523;SDS011;3295;38.928;-77.052;2022-07-29T12:47:21;7.97;;;5.07;;
6523;SDS011;3295;38.928;-77.052;2022-07-29T12:49:49;10.13;;;5.30;;
6523;SDS011;3295;38.928;-77.052;2022-07-29T12:52:26;7.27;;;4.47;;
6523;SDS011;3295;38.928;-77.052;2022-07-29T12:54:55;8.10;;;5.00;;
6523;SDS011;3295;38.928;-77.052;2022-07-29T12:57:22;11.73;;;5.47;;
6523;SDS011;3295;38.928;-77.052;2022-07-29T13:00:00;9.57;;;4.80;;
6523;SDS011;3295;38.928;-77.052;2022-07-29T13:02:28;7.10;;;4.60;;
6523;SDS011;3295;38.928;-77.052;2022-07-29T13:04:55;9.80;;;4.90;;
6523;SDS011;3295;38.928;-77.052;2022-07-29T13:07:24;9.13;;;4.90;;
6523;SDS011;3295;38.928;-77.052;2022-07-29T13:09:52;8.13;;;4.57;;
6523;SDS011;3295;38.928;-77.052;2022-07-29T13:12:21;8.63;;;5.10;;
6523;SDS011;3295;38.928;-77.052;2022-07-29T13:14:49;8.93;;;4.80;;
6523;SDS011;3295;38.928;-77.052;2022-07-29T13:17:17;9.97;;;4.90;;
6523;SDS011;3295;38.928;-77.052;2022-07-29T13:19:44;8.20;;;5.07;;
6523;SDS011;3295;38.928;-77.052;2022-07-29T13:22:13;8.97;;;5.03;;
6523;SDS011;3295;38.928;-77.052;2022-07-29T13:24:49;8.53;;;4.77;;
6523;SDS011;3295;38.928;-77.052;2022-07-29T13:27:17;9.50;;;5.87;;
6523;SDS011;3295;38.928;-77.052;2022-07-29T13:29:46;10.80;;;5.50;;
6523;SDS011;3295;38.928;-77.052;2022-07-29T13:32:16;8.70;;;5.23;;
6523;SDS011;3295;38.928;-77.052;2022-07-29T13:34:44;9.83;;;5.13;;
6523;SDS011;3295;38.928;-77.052;2022-07-29T13:37:11;9.53;;;5.70;;
6523;SDS011;3295;38.928;-77.052;2022-07-29T13:39:38;9.93;;;5.90;;
6523;SDS011;3295;38.928;-77.052;2022-07-29T13:42:06;11.00;;;5.60;;
6523;SDS011;3295;38.928;-77.052;2022-07-29T13:44:33;9.53;;;5.83;;
6523;SDS011;3295;38.928;-77.052;2022-07-29T13:47:02;8.40;;;5.53;;
6523;SDS011;3295;38.928;-77.052;2022-07-29T13:49:29;10.07;;;5.70;;
6523;SDS011;3295;38.928;-77.052;2022-07-29T13:51:56;11.17;;;6.10;;
6523;SDS011;3295;38.928;-77.052;2022-07-29T13:54:23;10.60;;;5.53;;
6523;SDS011;3295;38.928;-77.052;2022-07-29T13:56:50;8.70;;;5.43;;
6523;SDS011;3295;38.928;-77.052;2022-07-29T13:59:17;11.23;;;5.57;;
6523;SDS011;3295;38.928;-77.052;2022-07-29T14:01:44;8.30;;;5.50;;
6523;SDS011;3295;38.928;-77.052;2022-07-29T14:04:13;9.77;;;5.30;;
6523;SDS011;3295;38.928;-77.052;2022-07-29T14:06:40;9.40;;;5.40;;
6523;SDS011;3295;38.928;-77.052;2022-07-29T14:09:07;9.67;;;5.57;;
6523;SDS011;3295;38.928;-77.052;2022-07-29T14:11:35;8.33;;;5.13;;
6523;SDS011;3295;38.928;-77.052;2022-07-29T14:14:03;8.70;;;5.20;;
6523;SDS011;3295;38.928;-77.052;2022-07-29T14:16:31;8.57;;;5.17;;
6523;SDS011;3295;38.928;-77.052;2022-07-29T14:18:59;7.23;;;4.67;;
6523;SDS011;3295;38.928;-77.052;2022-07-29T14:21:28;6.40;;;4.43;;
6523;SDS011;3295;38.928;-77.052;2022-07-29T14:23:55;9.83;;;4.90;;
6523;SDS011;3295;38.928;-77.052;2022-07-29T14:26:23;7.80;;;4.83;;
6523;SDS011;3295;38.928;-77.052;2022-07-29T14:28:50;8.97;;;5.00;;
6523;SDS011;3295;38.928;-77.052;2022-07-29T14:31:18;9.20;;;4.83;;
6523;SDS011;3295;38.928;-77.052;2022-07-29T14:33:45;7.40;;;4.40;;
6523;SDS011;3295;38.928;-77.052;2022-07-29T14:36:12;9.53;;;4.97;;
6523;SDS011;3295;38.928;-77.052;2022-07-29T14:38:41;7.30;;;4.77;;
6523;SDS011;3295;38.928;-77.052;2022-07-29T14:41:08;8.97;;;4.90;;
6523;SDS011;3295;38.928;-77.052;2022-07-29T14:43:35;7.20;;;4.60;;
6523;SDS011;3295;38.928;-77.052;2022-07-29T14:46:02;6.70;;;4.80;;
6523;SDS011;3295;38.928;-77.052;2022-07-29T14:48:29;8.20;;;5.03;;
6523;SDS011;3295;38.928;-77.052;2022-07-29T14:50:57;7.60;;;4.83;;
6523;SDS011;3295;38.928;-77.052;2022-07-29T14:53:24;7.50;;;5.30;;
6523;SDS011;3295;38.928;-77.052;2022-07-29T14:55:52;8.90;;;5.13;;
6523;SDS011;3295;38.928;-77.052;2022-07-29T14:58:20;7.20;;;4.73;;
6523;SDS011;3295;38.928;-77.052;2022-07-29T15:00:48;9.23;;;5.33;;
6523;SDS011;3295;38.928;-77.052;2022-07-29T15:03:15;6.70;;;4.67;;
6523;SDS011;3295;38.928;-77.052;2022-07-29T15:05:42;7.70;;;5.20;;
6523;SDS011;3295;38.928;-77.052;2022-07-29T15:08:09;7.20;;;4.90;;
6523;SDS011;3295;38.928;-77.052;2022-07-29T15:10:36;9.33;;;5.83;;